EGOP 020420Z AUTO 32002KT 9999 OVC081/// 13/12 Q1016
From batch tds/metars/production/2022/10/2/h04_m54_metars.cache.csv.gz
Observed at (about 1 hour ago)
Identifier EGOP
EGOP 020350Z AUTO 31004KT 9999 OVC065/// 13/12 Q1016
From batch tds/metars/production/2022/10/2/h04_m25_metars.cache.csv.gz
Observed at (about 2 hours ago)
Identifier EGOP
EGOP 020120Z AUTO 28009KT 9999 OVC100/// 15/13 Q1015
From batch tds/metars/production/2022/10/2/h01_m58_metars.cache.csv.gz
Observed at (about 4 hours ago)
Identifier EGOP
EGOP 020050Z AUTO 29008KT 8000 OVC100/// 15/13 Q1015
From batch tds/metars/production/2022/10/2/h01_m29_metars.cache.csv.gz
Observed at (about 5 hours ago)
Identifier EGOP
EGOP 020020Z AUTO 28008KT 9000 OVC100/// 15/13 Q1015
From batch tds/metars/production/2022/10/2/h00_m59_metars.cache.csv.gz
Observed at (about 5 hours ago)
Identifier EGOP
EGOP 012320Z AUTO 28012KT 8000 OVC120/// 15/13 Q1014
From batch tds/metars/production/2022/10/1/h23_m51_metars.cache.csv.gz
Observed at (about 6 hours ago)
Identifier EGOP
EGOP 012020Z AUTO 26021KT 9000 OVC011/// 16/14 Q1013
From batch tds/metars/production/2022/10/1/h20_m55_metars.cache.csv.gz
Observed at (about 9 hours ago)
Identifier EGOP
EGOP 011950Z AUTO 26021KT 9999 OVC013/// 16/13 Q1013
From batch tds/metars/production/2022/10/1/h20_m27_metars.cache.csv.gz
Observed at (about 10 hours ago)
Identifier EGOP
EGOP 011820Z AUTO 26020KT 9999 OVC051/// 16/13 Q1012
From batch tds/metars/production/2022/10/1/h18_m51_metars.cache.csv.gz
Observed at (about 11 hours ago)
Identifier EGOP
EGOP 011750Z AUTO 26019KT 9999 OVC056/// 16/13 Q1012
From batch tds/metars/production/2022/10/1/h18_m22_metars.cache.csv.gz
Observed at (about 12 hours ago)
Identifier EGOP
EGOP 011620Z AUTO 27021KT 9999 SCT170/// 16/12 Q1011
From batch tds/metars/production/2022/10/1/h16_m56_metars.cache.csv.gz
Observed at (about 13 hours ago)
Identifier EGOP
EGOP 011520Z AUTO 25022KT 9999 FEW020/// 16/13 Q1010
From batch tds/metars/production/2022/10/1/h15_m59_metars.cache.csv.gz
Observed at (about 14 hours ago)
Identifier EGOP
EGOP 011450Z AUTO 25023KT 9999 NCD 17/13 Q1010
From batch tds/metars/production/2022/10/1/h15_m21_metars.cache.csv.gz
Observed at (about 15 hours ago)
Identifier EGOP
EGOP 011420Z AUTO 25023KT 9999 FEW017/// 17/13 Q1010
From batch tds/metars/production/2022/10/1/h14_m58_metars.cache.csv.gz
Observed at (about 15 hours ago)
Identifier EGOP
EGOP 011320Z AUTO 26020KT 9999 FEW023/// 17/13 Q1010
From batch tds/metars/production/2022/10/1/h13_m52_metars.cache.csv.gz
Observed at (about 16 hours ago)
Identifier EGOP
EGOP 011120Z AUTO 28018KT 9999 FEW034/// 17/12 Q1009
From batch tds/metars/production/2022/10/1/h11_m59_metars.cache.csv.gz
Observed at (about 18 hours ago)
Identifier EGOP
EGOP 010920Z AUTO 27018KT 9999 FEW019/// 16/12 Q1007
From batch tds/metars/production/2022/10/1/h09_m50_metars.cache.csv.gz
Observed at (about 20 hours ago)
Identifier EGOP
EGOP 010820Z AUTO 27012KT 8000 FEW160/// 15/12 Q1006
From batch tds/metars/production/2022/10/1/h08_m53_metars.cache.csv.gz
Observed at (about 21 hours ago)
Identifier EGOP
EGOP 010620Z AUTO 28013KT 9000 OVC170/// 14/12 Q1005
From batch tds/metars/production/2022/10/1/h06_m55_metars.cache.csv.gz
Observed at (about 23 hours ago)
Identifier EGOP
EGOP 010550Z AUTO 28017KT 9999 OVC180/// 14/11 Q1004
From batch tds/metars/production/2022/10/1/h06_m24_metars.cache.csv.gz
Observed at (about 24 hours ago)
Identifier EGOP
talk